Maxim, Georgia
Current Conditions -  °F | °C
As of 3:15 PM on Wednesday 28 Jan 2015 (Local Time) from KHQU Reporting Station
Clear Clear  
Wind Chill: 54°   Ceiling: Unl
Heat Index: 54°   Visibility: 10mi
Dew Point: 24°   Wind: 7mph
Humidity: 31%   Direction: 350°N
Pressure: 30.27"   Gusts: NA
Location:  33.7816°N, 82.4511°W
Report Text: KHQU 282015Z AUTO 35006KT 10SM CLR 12/M04 A3027 RMK AO1 T01221045
Loading
Personal Weather Stations






























Interactive Weather Map New forecast layout! Learn more

10-Day Weather Forecast

Advertisements
Track Severe Weather on mobile